createdAt,value
2022-10-04T00:00:09.658Z,15.90
2022-10-04T00:02:38.818Z,16.00
2022-10-04T00:05:10.244Z,16.00
2022-10-04T00:07:42.858Z,15.90
2022-10-04T00:10:20.936Z,15.80
2022-10-04T00:12:53.555Z,15.80
2022-10-04T00:15:24.941Z,15.90
2022-10-04T00:18:22.291Z,15.90
2022-10-04T00:20:59.945Z,15.80
2022-10-04T00:23:41.284Z,15.70
2022-10-04T00:26:17.389Z,15.60
2022-10-04T00:28:49.633Z,15.60
2022-10-04T00:31:24.009Z,15.70
2022-10-04T00:33:55.285Z,15.60
2022-10-04T00:36:41.742Z,15.60
2022-10-04T00:39:38.877Z,15.50
2022-10-04T00:42:23.807Z,15.50
2022-10-04T00:44:58.038Z,15.50
2022-10-04T00:47:33.381Z,15.50
2022-10-04T00:50:13.021Z,15.50
2022-10-04T00:52:46.448Z,15.50
2022-10-04T00:55:26.254Z,15.60
2022-10-04T00:58:00.561Z,15.60
2022-10-04T01:00:33.252Z,15.50
2022-10-04T01:03:05.283Z,15.40
2022-10-04T01:05:37.743Z,15.40
2022-10-04T01:08:11.944Z,15.30
2022-10-04T01:10:46.005Z,15.40
2022-10-04T01:13:18.382Z,15.30
2022-10-04T01:15:55.353Z,15.20
2022-10-04T01:18:32.727Z,15.20
2022-10-04T01:21:05.896Z,15.10
2022-10-04T01:23:44.008Z,15.20
2022-10-04T01:26:41.567Z,15.20
2022-10-04T01:29:16.727Z,15.20
2022-10-04T01:31:47.012Z,15.10
2022-10-04T01:34:17.395Z,15.10
2022-10-04T01:36:48.782Z,15.20
2022-10-04T01:39:20.903Z,15.30
2022-10-04T01:41:54.193Z,15.20
2022-10-04T01:44:29.614Z,15.10
2022-10-04T01:47:01.922Z,15.00
2022-10-04T01:49:33.561Z,15.00
2022-10-04T01:52:06.856Z,15.00
2022-10-04T01:54:40.198Z,15.00
2022-10-04T01:57:15.426Z,14.90
2022-10-04T01:59:55.247Z,14.80
2022-10-04T02:02:30.982Z,14.80
2022-10-04T02:05:00.796Z,14.80
2022-10-04T02:07:33.173Z,14.80
2022-10-04T02:10:06.617Z,14.80
2022-10-04T02:12:36.409Z,14.80
2022-10-04T02:15:08.711Z,14.80
2022-10-04T02:17:43.118Z,14.80
2022-10-04T02:20:16.149Z,14.70
2022-10-04T02:22:46.834Z,14.70
2022-10-04T02:25:19.652Z,14.70
2022-10-04T02:27:48.499Z,14.70
2022-10-04T02:30:16.986Z,14.70
2022-10-04T02:33:00.602Z,14.60
2022-10-04T02:35:34.248Z,14.60
2022-10-04T02:38:09.175Z,14.70
2022-10-04T02:40:46.041Z,14.70
2022-10-04T02:43:18.427Z,14.60
2022-10-04T02:45:53.034Z,14.60
2022-10-04T02:48:32.718Z,14.60
2022-10-04T02:51:08.410Z,14.60
2022-10-04T02:53:47.405Z,14.60
2022-10-04T02:56:19.324Z,14.50
2022-10-04T02:58:49.251Z,14.50
2022-10-04T03:01:26.911Z,14.50
2022-10-04T03:03:56.924Z,14.50
2022-10-04T03:06:32.409Z,14.50
2022-10-04T03:09:04.713Z,14.40
2022-10-04T03:11:38.231Z,14.40
2022-10-04T03:14:14.864Z,14.50
2022-10-04T03:16:46.551Z,14.40
2022-10-04T03:19:19.331Z,14.40
2022-10-04T03:21:50.480Z,14.40
2022-10-04T03:24:24.962Z,14.40
2022-10-04T03:26:57.485Z,14.20
2022-10-04T03:29:30.378Z,14.10
2022-10-04T03:32:01.632Z,14.00
2022-10-04T03:34:35.281Z,14.10
2022-10-04T03:37:07.254Z,14.20
2022-10-04T03:39:39.603Z,14.10
2022-10-04T03:42:14.071Z,14.10
2022-10-04T03:44:43.113Z,14.10
2022-10-04T03:47:14.388Z,14.10
2022-10-04T03:49:47.402Z,14.00
2022-10-04T03:52:24.218Z,14.00
2022-10-04T03:54:55.250Z,14.10
2022-10-04T03:57:25.234Z,14.10
2022-10-04T03:59:54.019Z,14.10
2022-10-04T04:02:31.637Z,14.20
2022-10-04T04:05:10.221Z,14.20
2022-10-04T04:07:44.187Z,14.10
2022-10-04T04:10:19.691Z,14.00
2022-10-04T04:12:57.392Z,13.90
2022-10-04T04:15:29.809Z,13.90
2022-10-04T04:18:03.233Z,13.90
2022-10-04T04:20:34.003Z,14.00
2022-10-04T04:23:06.979Z,14.10
2022-10-04T04:25:39.631Z,14.10
2022-10-04T04:28:22.233Z,14.10
2022-10-04T04:30:54.495Z,14.10
2022-10-04T04:33:29.811Z,14.00
2022-10-04T04:36:05.705Z,13.90
2022-10-04T04:38:35.525Z,13.90
2022-10-04T04:41:11.131Z,13.80
2022-10-04T04:43:45.199Z,13.90
2022-10-04T04:46:27.171Z,13.90
2022-10-04T04:49:02.515Z,13.90
2022-10-04T04:51:33.160Z,13.90
2022-10-04T04:54:05.055Z,13.80
2022-10-04T04:56:34.615Z,13.60
2022-10-04T04:59:08.288Z,13.50
2022-10-04T05:01:43.510Z,13.50
2022-10-04T05:04:20.050Z,13.50
2022-10-04T05:07:00.108Z,13.60
2022-10-04T05:09:31.848Z,13.70
2022-10-04T05:12:07.862Z,13.70
2022-10-04T05:14:41.210Z,13.70
2022-10-04T05:17:17.483Z,13.80
2022-10-04T05:19:46.495Z,13.90
2022-10-04T05:22:20.424Z,14.00
2022-10-04T05:24:53.287Z,14.10
2022-10-04T05:27:30.067Z,14.10
2022-10-04T05:30:07.868Z,14.10
2022-10-04T05:32:48.448Z,14.10
2022-10-04T05:35:18.903Z,14.00
2022-10-04T05:38:03.593Z,14.00
2022-10-04T05:40:42.953Z,13.90
2022-10-04T05:43:30.184Z,14.00
2022-10-04T05:46:22.631Z,14.10
2022-10-04T05:48:55.291Z,14.20
2022-10-04T05:51:27.174Z,14.40
2022-10-04T05:53:57.934Z,14.40
2022-10-04T05:56:55.025Z,14.50
2022-10-04T05:59:48.879Z,14.70
2022-10-04T06:02:33.499Z,14.80
2022-10-04T06:05:12.510Z,14.80
2022-10-04T06:07:44.870Z,15.00
2022-10-04T06:10:44.829Z,15.00
2022-10-04T06:13:29.133Z,15.20
2022-10-04T06:16:20.145Z,15.30
2022-10-04T06:19:24.066Z,15.40
2022-10-04T06:22:06.654Z,15.40
2022-10-04T06:24:38.459Z,15.50
2022-10-04T06:27:13.781Z,15.60
2022-10-04T06:29:48.679Z,15.70
2022-10-04T06:32:53.882Z,15.80
2022-10-04T06:35:47.494Z,15.90
2022-10-04T06:38:34.684Z,15.90
2022-10-04T06:41:46.005Z,16.00
2022-10-04T06:44:55.164Z,16.20
2022-10-04T06:47:38.201Z,16.10
2022-10-04T06:50:22.673Z,16.20
2022-10-04T06:53:10.574Z,16.40
2022-10-04T06:55:55.129Z,16.50
2022-10-04T07:03:51.415Z,16.80
2022-10-04T07:06:25.698Z,17.00
2022-10-04T07:08:59.762Z,17.10
2022-10-04T07:11:32.761Z,17.10
2022-10-04T07:14:07.397Z,17.10
2022-10-04T07:16:45.432Z,17.30
2022-10-04T07:19:29.164Z,17.30
2022-10-04T07:22:05.309Z,17.60
2022-10-04T07:24:47.424Z,17.70
2022-10-04T07:27:19.067Z,17.70
2022-10-04T07:29:53.038Z,17.80
2022-10-04T07:32:23.910Z,17.80
2022-10-04T07:34:58.594Z,17.90
2022-10-04T07:37:29.887Z,18.00
2022-10-04T07:40:03.778Z,18.00
2022-10-04T07:42:38.928Z,18.20
2022-10-04T07:45:16.335Z,18.40
2022-10-04T07:47:45.284Z,18.40
2022-10-04T07:50:29.513Z,18.50
2022-10-04T07:53:08.539Z,18.60
2022-10-04T07:55:52.764Z,18.60
2022-10-04T07:58:29.779Z,18.60
2022-10-04T08:01:02.238Z,18.60
2022-10-04T08:04:00.552Z,18.70
2022-10-04T08:06:37.674Z,18.80
2022-10-04T08:09:26.478Z,18.90
2022-10-04T08:12:07.326Z,19.00
2022-10-04T08:14:52.556Z,19.00
2022-10-04T08:17:34.560Z,19.10
2022-10-04T08:20:31.684Z,19.10
2022-10-04T08:23:32.476Z,19.20
2022-10-04T08:26:14.142Z,19.30
2022-10-04T08:29:09.342Z,19.30
2022-10-04T08:31:52.667Z,19.40
2022-10-04T08:34:42.336Z,19.30
2022-10-04T08:37:20.999Z,19.40
2022-10-04T08:39:59.579Z,19.30
2022-10-04T08:43:00.574Z,19.30
2022-10-04T08:46:19.742Z,19.30
2022-10-04T08:49:24.322Z,19.40
2022-10-04T08:52:20.543Z,19.60
2022-10-04T08:55:35.160Z,19.60
2022-10-04T08:58:33.487Z,19.50
2022-10-04T09:01:19.359Z,19.60
2022-10-04T09:04:22.903Z,19.60
2022-10-04T09:07:03.863Z,19.80
2022-10-04T09:10:06.803Z,19.90
2022-10-04T09:12:50.928Z,19.80
2022-10-04T09:15:31.769Z,19.60
2022-10-04T09:18:17.962Z,19.70
2022-10-04T09:20:57.848Z,19.80
2022-10-04T09:24:00.608Z,19.80
2022-10-04T09:26:44.985Z,19.80
2022-10-04T09:29:41.170Z,19.90
2022-10-04T09:32:49.191Z,19.90
2022-10-04T09:35:39.137Z,20.00
2022-10-04T09:38:26.178Z,20.10
2022-10-04T09:41:26.899Z,20.10
2022-10-04T09:44:25.588Z,20.10
2022-10-04T09:47:12.557Z,20.10
2022-10-04T09:50:17.516Z,20.10
2022-10-04T09:52:55.613Z,20.20
2022-10-04T09:55:36.521Z,20.20
2022-10-04T09:58:29.557Z,20.20
2022-10-04T10:01:09.065Z,20.20
2022-10-04T10:04:06.593Z,20.30
2022-10-04T10:06:51.926Z,20.40
2022-10-04T10:09:48.651Z,20.40
2022-10-04T10:13:05.838Z,20.40
2022-10-04T10:15:59.631Z,20.60
2022-10-04T10:18:36.595Z,20.70
2022-10-04T10:21:35.401Z,20.70
2022-10-04T10:24:26.121Z,20.80
2022-10-04T10:27:04.003Z,20.90
2022-10-04T10:30:04.469Z,21.00
2022-10-04T10:33:04.252Z,21.20
2022-10-04T10:35:49.201Z,21.40
2022-10-04T10:38:40.222Z,21.70
2022-10-04T10:41:32.321Z,21.90
2022-10-04T10:44:12.316Z,22.00
2022-10-04T10:47:00.470Z,22.00
2022-10-04T10:49:47.551Z,22.00
2022-10-04T10:52:47.019Z,22.20
2022-10-04T10:55:33.236Z,22.20
2022-10-04T10:58:41.299Z,22.30
2022-10-04T11:01:32.996Z,22.30
2022-10-04T11:04:24.183Z,22.20
2022-10-04T11:07:21.230Z,22.10
2022-10-04T11:10:09.947Z,22.20
2022-10-04T11:13:04.878Z,22.20
2022-10-04T11:16:10.711Z,22.30
2022-10-04T11:19:19.601Z,22.50
2022-10-04T11:22:19.825Z,22.80
2022-10-04T11:25:19.021Z,22.90
2022-10-04T11:27:57.909Z,22.90
2022-10-04T11:30:29.019Z,22.90
2022-10-04T11:33:34.057Z,22.90
2022-10-04T11:36:39.193Z,22.80
2022-10-04T11:39:25.959Z,22.50
2022-10-04T11:42:00.895Z,22.80
2022-10-04T11:45:01.545Z,22.90
2022-10-04T11:47:52.569Z,23.20
2022-10-04T11:50:37.213Z,23.30
2022-10-04T11:53:48.086Z,23.40
2022-10-04T11:56:34.840Z,23.50
2022-10-04T11:59:25.166Z,23.40
2022-10-04T12:02:41.581Z,23.30
2022-10-04T12:05:47.802Z,23.10
2022-10-04T12:08:30.426Z,23.20
2022-10-04T12:12:03.341Z,23.50
2022-10-04T12:14:50.981Z,23.20
2022-10-04T12:17:56.399Z,23.20
2022-10-04T12:20:56.942Z,23.30
2022-10-04T12:23:48.422Z,23.90
2022-10-04T12:26:56.919Z,24.20
2022-10-04T12:30:01.092Z,23.90
2022-10-04T12:32:37.410Z,23.80
2022-10-04T12:35:22.578Z,23.90
2022-10-04T12:38:13.619Z,24.00
2022-10-04T12:40:50.146Z,23.90
2022-10-04T12:43:28.187Z,23.70
2022-10-04T12:46:05.329Z,23.80
2022-10-04T12:48:55.042Z,23.70
2022-10-04T12:51:34.942Z,23.70
2022-10-04T12:54:15.913Z,23.90
2022-10-04T12:56:49.330Z,24.10
2022-10-04T12:59:44.162Z,24.20
2022-10-04T13:02:38.345Z,24.10
2022-10-04T13:05:18.398Z,23.60
2022-10-04T13:08:03.604Z,23.60
2022-10-04T13:10:51.498Z,23.90
2022-10-04T13:13:55.726Z,24.00
2022-10-04T13:19:37.289Z,24.00
2022-10-04T13:22:43.939Z,24.10
2022-10-04T13:25:24.788Z,24.30
2022-10-04T13:28:00.746Z,24.20
2022-10-04T13:30:34.189Z,23.80
2022-10-04T13:33:14.482Z,23.80
2022-10-04T13:35:50.908Z,23.60
2022-10-04T13:38:38.281Z,23.80
2022-10-04T13:41:17.648Z,24.10
2022-10-04T13:44:34.798Z,23.90
2022-10-04T13:47:23.933Z,23.40
2022-10-04T13:50:10.215Z,23.10
2022-10-04T13:53:05.015Z,23.30
2022-10-04T13:55:59.466Z,23.30
2022-10-04T13:58:37.424Z,23.00
2022-10-04T14:01:48.384Z,22.90
2022-10-04T14:04:43.782Z,22.70
2022-10-04T14:07:42.572Z,22.80
2022-10-04T14:10:43.933Z,22.70
2022-10-04T14:13:58.079Z,22.70
2022-10-04T14:16:57.631Z,22.70
2022-10-04T14:20:00.964Z,22.60
2022-10-04T14:22:57.110Z,22.50
2022-10-04T14:25:58.760Z,22.40
2022-10-04T14:28:58.251Z,22.20
2022-10-04T14:31:58.285Z,22.20
2022-10-04T14:34:56.054Z,22.20
2022-10-04T14:37:59.164Z,22.10
2022-10-04T14:40:49.014Z,22.10
2022-10-04T14:43:55.067Z,22.10
2022-10-04T14:46:29.704Z,22.00
2022-10-04T14:49:14.271Z,21.90
2022-10-04T14:51:56.616Z,21.90
2022-10-04T14:54:43.633Z,21.70
2022-10-04T14:57:20.606Z,21.70
2022-10-04T15:00:16.481Z,21.60
2022-10-04T15:03:13.448Z,21.60
2022-10-04T15:06:21.325Z,21.60
2022-10-04T15:09:36.702Z,21.60
2022-10-04T15:12:45.950Z,21.50
2022-10-04T15:15:45.954Z,21.30
2022-10-04T15:18:31.302Z,21.30
2022-10-04T15:21:06.886Z,21.20
2022-10-04T15:23:40.112Z,21.10
2022-10-04T15:26:49.948Z,21.00
2022-10-04T15:29:26.637Z,21.00
2022-10-04T15:32:07.409Z,20.90
2022-10-04T15:34:42.367Z,20.90
2022-10-04T15:37:20.050Z,20.90
2022-10-04T15:40:09.660Z,20.80
2022-10-04T15:42:41.833Z,20.90
2022-10-04T15:45:31.516Z,20.80
2022-10-04T15:48:22.729Z,20.80
2022-10-04T15:51:05.662Z,20.80
2022-10-04T15:54:11.159Z,20.80
2022-10-04T15:56:51.779Z,20.90
2022-10-04T15:59:49.498Z,20.90
2022-10-04T16:02:48.752Z,20.70
2022-10-04T16:05:26.927Z,20.60
2022-10-04T16:08:15.383Z,20.40
2022-10-04T16:11:03.574Z,20.30
2022-10-04T16:13:43.417Z,20.30
2022-10-04T16:16:43.220Z,20.30
2022-10-04T16:19:31.334Z,20.20
2022-10-04T16:22:16.105Z,20.10
2022-10-04T16:24:55.611Z,20.00
2022-10-04T16:27:46.171Z,19.90
2022-10-04T16:30:27.161Z,19.90
2022-10-04T16:33:31.395Z,19.80
2022-10-04T16:36:10.167Z,19.70
2022-10-04T16:39:07.711Z,19.60
2022-10-04T16:41:44.408Z,19.40
2022-10-04T16:44:35.399Z,19.40
2022-10-04T16:47:19.432Z,19.40
2022-10-04T16:49:55.006Z,19.30
2022-10-04T16:52:48.516Z,19.30
2022-10-04T16:55:43.633Z,19.20
2022-10-04T16:58:42.648Z,19.20
2022-10-04T17:02:11.410Z,19.00
2022-10-04T17:05:04.202Z,19.10
2022-10-04T17:07:44.599Z,19.00
2022-10-04T17:10:30.955Z,18.90
2022-10-04T17:13:14.173Z,18.80
2022-10-04T17:15:52.450Z,18.80
2022-10-04T17:18:36.177Z,18.70
2022-10-04T17:21:14.273Z,18.70
2022-10-04T17:24:14.763Z,18.60
2022-10-04T17:27:05.933Z,18.50
2022-10-04T17:29:49.031Z,18.60
2022-10-04T17:32:27.846Z,18.60
2022-10-04T17:35:13.619Z,18.60
2022-10-04T17:37:48.321Z,18.60
2022-10-04T17:40:37.535Z,18.60
2022-10-04T17:43:16.555Z,18.80
2022-10-04T17:46:00.758Z,18.80
2022-10-04T17:48:49.217Z,18.80
2022-10-04T17:52:01.203Z,18.60
2022-10-04T17:54:51.496Z,18.60
2022-10-04T17:57:27.312Z,18.50
2022-10-04T18:00:08.379Z,18.30
2022-10-04T18:03:13.011Z,18.10
2022-10-04T18:05:54.379Z,18.10
2022-10-04T18:08:40.614Z,18.00
2022-10-04T18:11:20.337Z,17.90
2022-10-04T18:13:55.610Z,17.70
2022-10-04T18:16:29.695Z,17.70
2022-10-04T18:19:02.714Z,17.70
2022-10-04T18:21:33.247Z,17.60
2022-10-04T18:24:18.557Z,17.50
2022-10-04T18:26:59.329Z,17.50
2022-10-04T18:29:39.859Z,17.30
2022-10-04T18:32:32.635Z,17.20
2022-10-04T18:35:04.019Z,17.20
2022-10-04T18:37:38.565Z,17.10
2022-10-04T18:40:19.349Z,17.00
2022-10-04T18:42:58.537Z,17.00
2022-10-04T18:45:30.222Z,17.00
2022-10-04T18:48:01.471Z,17.10
2022-10-04T18:50:39.278Z,17.00
2022-10-04T18:53:32.430Z,17.00
2022-10-04T18:56:03.563Z,17.00
2022-10-04T18:59:20.284Z,16.80
2022-10-04T19:02:07.892Z,16.60
2022-10-04T19:04:48.427Z,16.70
2022-10-04T19:07:19.824Z,16.60
2022-10-04T19:10:05.070Z,16.50
2022-10-04T19:12:42.488Z,16.50
2022-10-04T19:15:25.157Z,16.40
2022-10-04T19:18:03.073Z,16.40
2022-10-04T19:20:40.756Z,16.40
2022-10-04T19:23:21.077Z,16.40
2022-10-04T19:26:26.081Z,16.30
2022-10-04T19:28:43.375Z,16.20
2022-10-04T19:31:21.024Z,16.10
2022-10-04T19:33:56.608Z,16.10
2022-10-04T19:36:34.282Z,16.00
2022-10-04T19:39:17.323Z,15.90
2022-10-04T19:41:55.738Z,15.90
2022-10-04T19:44:36.268Z,16.00
2022-10-04T19:47:10.480Z,16.10
2022-10-04T19:49:51.064Z,16.10
2022-10-04T19:52:26.808Z,16.10
2022-10-04T19:55:03.468Z,16.10
2022-10-04T19:57:38.418Z,16.10
2022-10-04T20:00:16.888Z,16.10
2022-10-04T20:02:48.730Z,16.10
2022-10-04T20:05:25.118Z,16.10
2022-10-04T20:08:01.346Z,16.10
2022-10-04T20:10:34.573Z,16.10
2022-10-04T20:13:27.293Z,16.00
2022-10-04T20:16:00.318Z,15.80
2022-10-04T20:19:09.803Z,15.70
2022-10-04T20:21:39.730Z,15.60
2022-10-04T20:24:17.707Z,15.50
2022-10-04T20:26:55.028Z,15.50
2022-10-04T20:30:05.218Z,15.50
2022-10-04T20:32:59.347Z,15.50
2022-10-04T20:36:08.577Z,15.40
2022-10-04T20:38:55.402Z,15.40
2022-10-04T20:42:22.565Z,15.30
2022-10-04T20:44:57.824Z,15.30
2022-10-04T20:47:39.419Z,15.30
2022-10-04T20:50:16.565Z,15.20
2022-10-04T20:52:50.219Z,15.30
2022-10-04T20:55:27.320Z,15.30
2022-10-04T20:57:57.807Z,15.40
2022-10-04T21:00:28.118Z,15.40
2022-10-04T21:03:14.429Z,15.50
2022-10-04T21:05:43.765Z,15.60
2022-10-04T21:08:20.890Z,15.60
2022-10-04T21:11:10.080Z,15.50
2022-10-04T21:13:49.697Z,15.60
2022-10-04T21:16:43.126Z,15.50
2022-10-04T21:19:45.318Z,15.40
2022-10-04T21:22:41.138Z,15.30
2022-10-04T21:25:39.607Z,15.10
2022-10-04T21:28:26.014Z,15.00
2022-10-04T21:30:55.216Z,14.90
2022-10-04T21:33:23.638Z,14.80
2022-10-04T21:35:52.717Z,14.80
2022-10-04T21:38:21.181Z,14.80
2022-10-04T21:40:49.608Z,14.60
2022-10-04T21:43:17.994Z,14.60
2022-10-04T21:45:47.816Z,14.50
2022-10-04T21:48:16.374Z,14.50
2022-10-04T21:50:44.960Z,14.50
2022-10-04T21:53:13.759Z,14.60
2022-10-04T21:55:42.208Z,14.70
2022-10-04T21:58:10.591Z,14.80
2022-10-04T22:00:39.096Z,14.90
2022-10-04T22:03:08.918Z,14.90
2022-10-04T22:05:37.351Z,15.00
2022-10-04T22:08:05.800Z,15.00
2022-10-04T22:10:34.242Z,15.00
2022-10-04T22:13:02.637Z,15.10
2022-10-04T22:15:31.097Z,15.00
2022-10-04T22:17:59.536Z,15.10
2022-10-04T22:20:29.553Z,15.20
2022-10-04T22:22:59.161Z,15.20
2022-10-04T22:25:29.177Z,15.20
2022-10-04T22:27:57.652Z,15.20
2022-10-04T22:30:27.991Z,15.30
2022-10-04T22:33:03.130Z,15.30
2022-10-04T22:35:34.734Z,15.20
2022-10-04T22:38:03.645Z,15.30
2022-10-04T22:40:32.073Z,15.30
2022-10-04T22:43:01.029Z,15.20
2022-10-04T22:45:33.556Z,15.10
2022-10-04T22:48:11.796Z,15.10
2022-10-04T22:50:42.049Z,15.00
2022-10-04T22:53:14.881Z,15.20
2022-10-04T22:55:43.577Z,15.10
2022-10-04T22:58:13.793Z,15.10
2022-10-04T23:00:43.105Z,15.00
2022-10-04T23:03:27.758Z,15.10
2022-10-04T23:05:57.864Z,15.10
2022-10-04T23:08:26.524Z,15.00
2022-10-04T23:10:55.917Z,15.00
2022-10-04T23:13:25.015Z,15.00
2022-10-04T23:15:53.871Z,15.00
2022-10-04T23:18:22.389Z,15.10
2022-10-04T23:21:02.370Z,15.10
2022-10-04T23:23:32.393Z,15.10
2022-10-04T23:26:00.822Z,15.10
2022-10-04T23:28:29.461Z,15.10
2022-10-04T23:31:06.184Z,15.10
2022-10-04T23:33:35.494Z,15.10
2022-10-04T23:36:10.768Z,15.00
2022-10-04T23:38:39.355Z,15.00
2022-10-04T23:41:11.347Z,15.00
2022-10-04T23:43:40.296Z,15.00
2022-10-04T23:46:14.860Z,15.10
2022-10-04T23:48:43.667Z,15.10
2022-10-04T23:51:16.000Z,15.00
2022-10-04T23:53:46.310Z,15.00
2022-10-04T23:56:20.261Z,15.00
2022-10-04T23:58:49.708Z,15.00
